sensor_id;sensor_type;location;lat;lon;timestamp;P1;durP1;ratioP1;P2;durP2;ratioP2
66342;SDS011;53144;51.524;5.080;2023-04-03T00:01:33;7.60;;;4.33;;
66342;SDS011;53144;51.524;5.080;2023-04-03T00:03:58;5.07;;;4.32;;
66342;SDS011;53144;51.524;5.080;2023-04-03T00:06:24;7.53;;;4.07;;
66342;SDS011;53144;51.524;5.080;2023-04-03T00:08:50;5.10;;;3.92;;
66342;SDS011;53144;51.524;5.080;2023-04-03T00:11:16;4.88;;;3.60;;
66342;SDS011;53144;51.524;5.080;2023-04-03T00:13:42;6.65;;;4.10;;
66342;SDS011;53144;51.524;5.080;2023-04-03T00:16:08;7.20;;;4.03;;
66342;SDS011;53144;51.524;5.080;2023-04-03T00:18:35;6.75;;;4.38;;
66342;SDS011;53144;51.524;5.080;2023-04-03T00:21:01;6.40;;;4.07;;
66342;SDS011;53144;51.524;5.080;2023-04-03T00:23:27;7.15;;;4.55;;
66342;SDS011;53144;51.524;5.080;2023-04-03T00:25:53;9.73;;;4.22;;
66342;SDS011;53144;51.524;5.080;2023-04-03T00:28:18;5.18;;;3.78;;
66342;SDS011;53144;51.524;5.080;2023-04-03T00:30:44;6.63;;;4.13;;
66342;SDS011;53144;51.524;5.080;2023-04-03T00:33:13;7.30;;;4.00;;
66342;SDS011;53144;51.524;5.080;2023-04-03T00:35:38;5.50;;;4.30;;
66342;SDS011;53144;51.524;5.080;2023-04-03T00:38:04;7.93;;;4.82;;
66342;SDS011;53144;51.524;5.080;2023-04-03T00:40:33;8.02;;;4.18;;
66342;SDS011;53144;51.524;5.080;2023-04-03T00:43:05;4.70;;;3.72;;
66342;SDS011;53144;51.524;5.080;2023-04-03T00:45:38;7.05;;;4.03;;
66342;SDS011;53144;51.524;5.080;2023-04-03T00:48:06;8.43;;;5.07;;
66342;SDS011;53144;51.524;5.080;2023-04-03T00:50:35;8.13;;;4.75;;
66342;SDS011;53144;51.524;5.080;2023-04-03T00:53:04;7.00;;;5.13;;
66342;SDS011;53144;51.524;5.080;2023-04-03T00:55:31;7.82;;;5.30;;
66342;SDS011;53144;51.524;5.080;2023-04-03T00:57:57;8.15;;;5.18;;
66342;SDS011;53144;51.524;5.080;2023-04-03T01:00:25;7.28;;;4.70;;
66342;SDS011;53144;51.524;5.080;2023-04-03T01:02:51;6.60;;;5.03;;
66342;SDS011;53144;51.524;5.080;2023-04-03T01:05:17;8.30;;;4.70;;
66342;SDS011;53144;51.524;5.080;2023-04-03T01:07:45;7.55;;;4.68;;
66342;SDS011;53144;51.524;5.080;2023-04-03T01:10:12;6.40;;;5.15;;
66342;SDS011;53144;51.524;5.080;2023-04-03T01:12:41;6.57;;;5.25;;
66342;SDS011;53144;51.524;5.080;2023-04-03T01:15:16;7.90;;;5.53;;
66342;SDS011;53144;51.524;5.080;2023-04-03T01:25:47;10.25;;;4.82;;
66342;SDS011;53144;51.524;5.080;2023-04-03T01:28:19;6.68;;;4.85;;
66342;SDS011;53144;51.524;5.080;2023-04-03T01:33:23;7.85;;;4.68;;
66342;SDS011;53144;51.524;5.080;2023-04-03T01:35:49;7.28;;;5.47;;
66342;SDS011;53144;51.524;5.080;2023-04-03T01:38:14;6.03;;;4.70;;
66342;SDS011;53144;51.524;5.080;2023-04-03T01:40:40;7.00;;;4.78;;
66342;SDS011;53144;51.524;5.080;2023-04-03T01:43:06;9.02;;;5.32;;
66342;SDS011;53144;51.524;5.080;2023-04-03T01:45:31;7.07;;;4.93;;
66342;SDS011;53144;51.524;5.080;2023-04-03T01:47:57;6.47;;;4.20;;
66342;SDS011;53144;51.524;5.080;2023-04-03T01:50:22;5.50;;;4.50;;
66342;SDS011;53144;51.524;5.080;2023-04-03T01:52:47;5.70;;;4.47;;
66342;SDS011;53144;51.524;5.080;2023-04-03T01:55:13;7.60;;;4.50;;
66342;SDS011;53144;51.524;5.080;2023-04-03T01:57:38;6.15;;;4.35;;
66342;SDS011;53144;51.524;5.080;2023-04-03T02:00:04;9.17;;;4.77;;
66342;SDS011;53144;51.524;5.080;2023-04-03T02:02:29;7.05;;;4.55;;
66342;SDS011;53144;51.524;5.080;2023-04-03T02:04:55;6.70;;;4.60;;
66342;SDS011;53144;51.524;5.080;2023-04-03T02:07:20;8.75;;;4.45;;
66342;SDS011;53144;51.524;5.080;2023-04-03T02:09:46;8.13;;;4.38;;
66342;SDS011;53144;51.524;5.080;2023-04-03T02:12:11;6.03;;;4.07;;
66342;SDS011;53144;51.524;5.080;2023-04-03T02:14:37;8.43;;;4.55;;
66342;SDS011;53144;51.524;5.080;2023-04-03T02:17:02;5.23;;;4.00;;
66342;SDS011;53144;51.524;5.080;2023-04-03T02:19:30;6.35;;;4.18;;
66342;SDS011;53144;51.524;5.080;2023-04-03T02:21:56;6.55;;;4.35;;
66342;SDS011;53144;51.524;5.080;2023-04-03T02:24:21;8.60;;;4.60;;
66342;SDS011;53144;51.524;5.080;2023-04-03T02:26:47;8.07;;;4.25;;
66342;SDS011;53144;51.524;5.080;2023-04-03T02:29:12;6.90;;;4.27;;
66342;SDS011;53144;51.524;5.080;2023-04-03T02:31:37;7.25;;;4.55;;
66342;SDS011;53144;51.524;5.080;2023-04-03T02:34:03;6.33;;;4.47;;
66342;SDS011;53144;51.524;5.080;2023-04-03T02:36:28;8.67;;;4.43;;
66342;SDS011;53144;51.524;5.080;2023-04-03T02:38:53;8.88;;;4.40;;
66342;SDS011;53144;51.524;5.080;2023-04-03T02:41:19;5.97;;;4.03;;
66342;SDS011;53144;51.524;5.080;2023-04-03T02:43:45;6.63;;;3.90;;
66342;SDS011;53144;51.524;5.080;2023-04-03T02:46:11;5.17;;;4.07;;
66342;SDS011;53144;51.524;5.080;2023-04-03T02:48:36;5.90;;;4.10;;
66342;SDS011;53144;51.524;5.080;2023-04-03T02:51:02;10.05;;;4.50;;
66342;SDS011;53144;51.524;5.080;2023-04-03T02:53:27;8.32;;;4.28;;
66342;SDS011;53144;51.524;5.080;2023-04-03T02:55:52;7.45;;;4.40;;
66342;SDS011;53144;51.524;5.080;2023-04-03T02:58:18;6.10;;;4.53;;
66342;SDS011;53144;51.524;5.080;2023-04-03T03:00:43;6.87;;;4.23;;
66342;SDS011;53144;51.524;5.080;2023-04-03T03:03:09;5.03;;;4.35;;
66342;SDS011;53144;51.524;5.080;2023-04-03T03:05:34;5.20;;;3.80;;
66342;SDS011;53144;51.524;5.080;2023-04-03T03:08:01;8.68;;;4.43;;
66342;SDS011;53144;51.524;5.080;2023-04-03T03:10:26;7.17;;;4.20;;
66342;SDS011;53144;51.524;5.080;2023-04-03T03:12:51;9.60;;;3.60;;
66342;SDS011;53144;51.524;5.080;2023-04-03T03:15:17;6.75;;;4.20;;
66342;SDS011;53144;51.524;5.080;2023-04-03T03:17:44;5.50;;;3.92;;
66342;SDS011;53144;51.524;5.080;2023-04-03T03:20:10;6.55;;;4.20;;
66342;SDS011;53144;51.524;5.080;2023-04-03T03:22:36;9.25;;;4.47;;
66342;SDS011;53144;51.524;5.080;2023-04-03T03:25:02;8.40;;;4.20;;
66342;SDS011;53144;51.524;5.080;2023-04-03T03:27:28;6.32;;;3.88;;
66342;SDS011;53144;51.524;5.080;2023-04-03T03:29:53;4.95;;;3.95;;
66342;SDS011;53144;51.524;5.080;2023-04-03T03:32:19;5.05;;;4.10;;
66342;SDS011;53144;51.524;5.080;2023-04-03T03:34:44;8.90;;;4.43;;
66342;SDS011;53144;51.524;5.080;2023-04-03T03:37:10;5.53;;;4.10;;
66342;SDS011;53144;51.524;5.080;2023-04-03T03:39:35;8.55;;;4.32;;
66342;SDS011;53144;51.524;5.080;2023-04-03T03:42:00;5.10;;;3.97;;
66342;SDS011;53144;51.524;5.080;2023-04-03T03:44:26;7.30;;;4.03;;
66342;SDS011;53144;51.524;5.080;2023-04-03T03:46:53;7.90;;;3.80;;
66342;SDS011;53144;51.524;5.080;2023-04-03T03:49:19;5.13;;;3.88;;
66342;SDS011;53144;51.524;5.080;2023-04-03T03:51:44;8.50;;;4.00;;
66342;SDS011;53144;51.524;5.080;2023-04-03T03:54:10;8.25;;;3.97;;
66342;SDS011;53144;51.524;5.080;2023-04-03T03:56:35;6.20;;;3.92;;
66342;SDS011;53144;51.524;5.080;2023-04-03T03:59:01;5.32;;;3.85;;
66342;SDS011;53144;51.524;5.080;2023-04-03T04:01:26;8.37;;;3.90;;
66342;SDS011;53144;51.524;5.080;2023-04-03T04:03:52;8.33;;;4.07;;
66342;SDS011;53144;51.524;5.080;2023-04-03T04:06:18;7.38;;;3.92;;
66342;SDS011;53144;51.524;5.080;2023-04-03T04:08:44;5.43;;;3.80;;
66342;SDS011;53144;51.524;5.080;2023-04-03T04:11:10;10.43;;;3.92;;
66342;SDS011;53144;51.524;5.080;2023-04-03T04:13:35;7.75;;;4.10;;
66342;SDS011;53144;51.524;5.080;2023-04-03T04:16:00;7.67;;;4.13;;
66342;SDS011;53144;51.524;5.080;2023-04-03T04:18:26;5.78;;;3.92;;
66342;SDS011;53144;51.524;5.080;2023-04-03T04:20:51;7.05;;;3.70;;
66342;SDS011;53144;51.524;5.080;2023-04-03T04:23:17;5.35;;;3.90;;
66342;SDS011;53144;51.524;5.080;2023-04-03T04:25:46;6.00;;;3.50;;
66342;SDS011;53144;51.524;5.080;2023-04-03T04:28:13;5.13;;;3.83;;
66342;SDS011;53144;51.524;5.080;2023-04-03T04:30:38;3.78;;;3.15;;
66342;SDS011;53144;51.524;5.080;2023-04-03T04:33:04;5.80;;;3.58;;
66342;SDS011;53144;51.524;5.080;2023-04-03T04:35:29;6.18;;;3.63;;
66342;SDS011;53144;51.524;5.080;2023-04-03T04:37:55;5.15;;;3.15;;
66342;SDS011;53144;51.524;5.080;2023-04-03T04:40:21;4.57;;;3.20;;
66342;SDS011;53144;51.524;5.080;2023-04-03T04:42:47;8.15;;;3.92;;
66342;SDS011;53144;51.524;5.080;2023-04-03T04:45:12;6.22;;;3.78;;
66342;SDS011;53144;51.524;5.080;2023-04-03T04:47:38;6.10;;;3.00;;
66342;SDS011;53144;51.524;5.080;2023-04-03T04:50:03;5.30;;;2.88;;
66342;SDS011;53144;51.524;5.080;2023-04-03T04:52:29;6.45;;;3.58;;
66342;SDS011;53144;51.524;5.080;2023-04-03T04:54:54;3.88;;;3.05;;
66342;SDS011;53144;51.524;5.080;2023-04-03T04:57:20;6.37;;;3.20;;
66342;SDS011;53144;51.524;5.080;2023-04-03T04:59:45;9.73;;;3.23;;
66342;SDS011;53144;51.524;5.080;2023-04-03T05:02:10;6.43;;;3.10;;
66342;SDS011;53144;51.524;5.080;2023-04-03T05:04:36;4.20;;;2.90;;
66342;SDS011;53144;51.524;5.080;2023-04-03T05:07:01;5.73;;;3.20;;
66342;SDS011;53144;51.524;5.080;2023-04-03T05:09:27;9.13;;;3.60;;
66342;SDS011;53144;51.524;5.080;2023-04-03T05:11:52;7.80;;;3.05;;
66342;SDS011;53144;51.524;5.080;2023-04-03T05:14:17;5.13;;;3.20;;
66342;SDS011;53144;51.524;5.080;2023-04-03T05:16:43;4.88;;;3.05;;
66342;SDS011;53144;51.524;5.080;2023-04-03T05:19:08;5.73;;;3.10;;
66342;SDS011;53144;51.524;5.080;2023-04-03T05:21:34;5.85;;;3.40;;
66342;SDS011;53144;51.524;5.080;2023-04-03T05:24:00;4.78;;;3.20;;
66342;SDS011;53144;51.524;5.080;2023-04-03T05:26:27;6.65;;;3.10;;
66342;SDS011;53144;51.524;5.080;2023-04-03T05:28:56;5.93;;;3.40;;
66342;SDS011;53144;51.524;5.080;2023-04-03T05:31:21;7.05;;;3.13;;
66342;SDS011;53144;51.524;5.080;2023-04-03T05:33:48;4.45;;;2.92;;
66342;SDS011;53144;51.524;5.080;2023-04-03T05:36:14;4.80;;;2.55;;
66342;SDS011;53144;51.524;5.080;2023-04-03T05:38:40;3.58;;;2.80;;
66342;SDS011;53144;51.524;5.080;2023-04-03T05:41:05;6.50;;;2.70;;
66342;SDS011;53144;51.524;5.080;2023-04-03T05:43:31;5.32;;;3.30;;
66342;SDS011;53144;51.524;5.080;2023-04-03T05:45:56;5.32;;;3.20;;
66342;SDS011;53144;51.524;5.080;2023-04-03T05:48:22;5.38;;;2.60;;
66342;SDS011;53144;51.524;5.080;2023-04-03T05:50:47;5.28;;;2.90;;
66342;SDS011;53144;51.524;5.080;2023-04-03T05:53:15;6.97;;;3.17;;
66342;SDS011;53144;51.524;5.080;2023-04-03T05:55:45;5.53;;;3.00;;
66342;SDS011;53144;51.524;5.080;2023-04-03T05:58:11;5.65;;;2.97;;
66342;SDS011;53144;51.524;5.080;2023-04-03T06:00:36;6.25;;;3.17;;
66342;SDS011;53144;51.524;5.080;2023-04-03T06:03:02;6.43;;;3.03;;
66342;SDS011;53144;51.524;5.080;2023-04-03T06:05:27;5.80;;;3.05;;
66342;SDS011;53144;51.524;5.080;2023-04-03T06:07:53;5.97;;;2.95;;
66342;SDS011;53144;51.524;5.080;2023-04-03T06:10:18;4.03;;;2.95;;
66342;SDS011;53144;51.524;5.080;2023-04-03T06:12:45;8.38;;;2.83;;
66342;SDS011;53144;51.524;5.080;2023-04-03T06:15:10;6.72;;;2.50;;
66342;SDS011;53144;51.524;5.080;2023-04-03T06:17:36;5.72;;;3.08;;
66342;SDS011;53144;51.524;5.080;2023-04-03T06:20:03;4.43;;;2.35;;
66342;SDS011;53144;51.524;5.080;2023-04-03T06:22:29;4.05;;;2.58;;
66342;SDS011;53144;51.524;5.080;2023-04-03T06:24:55;7.78;;;2.50;;
66342;SDS011;53144;51.524;5.080;2023-04-03T06:29:46;4.45;;;2.20;;
66342;SDS011;53144;51.524;5.080;2023-04-03T06:32:13;3.42;;;2.30;;
66342;SDS011;53144;51.524;5.080;2023-04-03T06:34:38;7.57;;;2.80;;
66342;SDS011;53144;51.524;5.080;2023-04-03T06:37:04;5.32;;;2.28;;
66342;SDS011;53144;51.524;5.080;2023-04-03T06:39:30;5.05;;;2.30;;
66342;SDS011;53144;51.524;5.080;2023-04-03T06:41:55;5.65;;;2.45;;
66342;SDS011;53144;51.524;5.080;2023-04-03T06:44:20;3.72;;;2.00;;
66342;SDS011;53144;51.524;5.080;2023-04-03T06:46:46;5.55;;;2.40;;
66342;SDS011;53144;51.524;5.080;2023-04-03T06:49:11;2.65;;;1.88;;
66342;SDS011;53144;51.524;5.080;2023-04-03T06:51:37;5.47;;;2.38;;
66342;SDS011;53144;51.524;5.080;2023-04-03T06:54:03;4.38;;;2.13;;
66342;SDS011;53144;51.524;5.080;2023-04-03T06:56:29;6.45;;;2.38;;
66342;SDS011;53144;51.524;5.080;2023-04-03T06:58:55;10.80;;;2.03;;
66342;SDS011;53144;51.524;5.080;2023-04-03T07:01:23;3.72;;;1.98;;
66342;SDS011;53144;51.524;5.080;2023-04-03T07:03:51;5.25;;;2.03;;
66342;SDS011;53144;51.524;5.080;2023-04-03T07:06:17;3.58;;;2.65;;
66342;SDS011;53144;51.524;5.080;2023-04-03T07:08:43;5.93;;;2.38;;
66342;SDS011;53144;51.524;5.080;2023-04-03T07:11:09;7.97;;;2.17;;
66342;SDS011;53144;51.524;5.080;2023-04-03T07:13:36;3.80;;;2.10;;
66342;SDS011;53144;51.524;5.080;2023-04-03T07:18:28;6.22;;;1.98;;
66342;SDS011;53144;51.524;5.080;2023-04-03T07:20:54;5.30;;;2.00;;
66342;SDS011;53144;51.524;5.080;2023-04-03T07:23:21;4.97;;;2.15;;
66342;SDS011;53144;51.524;5.080;2023-04-03T07:25:47;5.43;;;2.47;;
66342;SDS011;53144;51.524;5.080;2023-04-03T07:28:14;5.55;;;2.40;;
66342;SDS011;53144;51.524;5.080;2023-04-03T07:30:47;5.97;;;2.20;;
66342;SDS011;53144;51.524;5.080;2023-04-03T07:33:15;3.97;;;2.00;;
66342;SDS011;53144;51.524;5.080;2023-04-03T07:35:42;5.28;;;2.45;;
66342;SDS011;53144;51.524;5.080;2023-04-03T07:38:08;4.68;;;2.20;;
66342;SDS011;53144;51.524;5.080;2023-04-03T07:40:34;2.30;;;1.52;;
66342;SDS011;53144;51.524;5.080;2023-04-03T07:43:00;5.03;;;1.90;;
66342;SDS011;53144;51.524;5.080;2023-04-03T07:45:25;5.60;;;2.30;;
66342;SDS011;53144;51.524;5.080;2023-04-03T07:47:51;2.70;;;1.52;;
66342;SDS011;53144;51.524;5.080;2023-04-03T07:50:17;5.70;;;2.45;;
66342;SDS011;53144;51.524;5.080;2023-04-03T07:52:43;4.38;;;1.92;;
66342;SDS011;53144;51.524;5.080;2023-04-03T07:55:08;6.82;;;2.13;;
66342;SDS011;53144;51.524;5.080;2023-04-03T07:57:34;4.80;;;2.10;;
66342;SDS011;53144;51.524;5.080;2023-04-03T08:00:00;4.47;;;2.00;;
66342;SDS011;53144;51.524;5.080;2023-04-03T08:02:26;7.18;;;2.47;;
66342;SDS011;53144;51.524;5.080;2023-04-03T08:04:51;6.13;;;1.90;;
66342;SDS011;53144;51.524;5.080;2023-04-03T08:07:17;2.78;;;1.48;;
66342;SDS011;53144;51.524;5.080;2023-04-03T08:09:42;5.13;;;2.03;;
66342;SDS011;53144;51.524;5.080;2023-04-03T08:12:09;7.97;;;1.98;;
66342;SDS011;53144;51.524;5.080;2023-04-03T08:14:36;3.97;;;1.77;;
66342;SDS011;53144;51.524;5.080;2023-04-03T08:17:02;4.60;;;1.73;;
66342;SDS011;53144;51.524;5.080;2023-04-03T08:19:29;4.03;;;1.60;;
66342;SDS011;53144;51.524;5.080;2023-04-03T08:21:55;8.57;;;2.13;;
66342;SDS011;53144;51.524;5.080;2023-04-03T08:24:22;3.83;;;1.70;;
66342;SDS011;53144;51.524;5.080;2023-04-03T08:26:47;6.35;;;1.90;;
66342;SDS011;53144;51.524;5.080;2023-04-03T08:29:13;7.13;;;2.33;;
66342;SDS011;53144;51.524;5.080;2023-04-03T08:31:38;6.45;;;2.03;;
66342;SDS011;53144;51.524;5.080;2023-04-03T08:34:04;6.85;;;1.88;;
66342;SDS011;53144;51.524;5.080;2023-04-03T08:36:30;4.38;;;2.03;;
66342;SDS011;53144;51.524;5.080;2023-04-03T08:38:55;2.83;;;1.63;;
66342;SDS011;53144;51.524;5.080;2023-04-03T08:44:10;3.47;;;1.52;;
66342;SDS011;53144;51.524;5.080;2023-04-03T08:47:18;2.83;;;1.50;;
66342;SDS011;53144;51.524;5.080;2023-04-03T08:49:51;4.57;;;1.90;;
66342;SDS011;53144;51.524;5.080;2023-04-03T08:52:36;2.83;;;1.60;;
66342;SDS011;53144;51.524;5.080;2023-04-03T08:55:24;3.60;;;1.67;;
66342;SDS011;53144;51.524;5.080;2023-04-03T08:58:36;3.80;;;1.65;;
66342;SDS011;53144;51.524;5.080;2023-04-03T09:00:51;2.10;;;1.30;;
66342;SDS011;53144;51.524;5.080;2023-04-03T09:03:21;3.35;;;1.50;;
66342;SDS011;53144;51.524;5.080;2023-04-03T09:10:45;2.10;;;1.40;;
66342;SDS011;53144;51.524;5.080;2023-04-03T09:13:13;2.05;;;1.05;;
66342;SDS011;53144;51.524;5.080;2023-04-03T09:15:55;3.97;;;1.40;;
66342;SDS011;53144;51.524;5.080;2023-04-03T09:18:26;2.20;;;1.40;;
66342;SDS011;53144;51.524;5.080;2023-04-03T09:21:14;1.90;;;1.40;;
66342;SDS011;53144;51.524;5.080;2023-04-03T09:23:46;1.90;;;1.27;;
66342;SDS011;53144;51.524;5.080;2023-04-03T09:26:20;2.30;;;1.05;;
66342;SDS011;53144;51.524;5.080;2023-04-03T09:28:51;3.72;;;1.45;;
66342;SDS011;53144;51.524;5.080;2023-04-03T09:33:51;2.15;;;1.15;;
66342;SDS011;53144;51.524;5.080;2023-04-03T09:36:39;2.72;;;1.20;;
66342;SDS011;53144;51.524;5.080;2023-04-03T09:39:16;3.05;;;1.30;;
66342;SDS011;53144;51.524;5.080;2023-04-03T09:44:31;4.53;;;1.20;;
66342;SDS011;53144;51.524;5.080;2023-04-03T09:47:19;1.67;;;0.80;;
66342;SDS011;53144;51.524;5.080;2023-04-03T09:52:45;7.70;;;1.23;;
66342;SDS011;53144;51.524;5.080;2023-04-03T09:57:44;2.10;;;1.00;;
66342;SDS011;53144;51.524;5.080;2023-04-03T10:00:19;2.83;;;0.90;;
66342;SDS011;53144;51.524;5.080;2023-04-03T10:02:53;2.08;;;0.88;;
66342;SDS011;53144;51.524;5.080;2023-04-03T10:05:28;1.52;;;0.88;;
66342;SDS011;53144;51.524;5.080;2023-04-03T10:10:32;3.05;;;1.02;;
66342;SDS011;53144;51.524;5.080;2023-04-03T10:13:09;2.30;;;1.13;;
66342;SDS011;53144;51.524;5.080;2023-04-03T10:15:45;1.75;;;0.95;;
66342;SDS011;53144;51.524;5.080;2023-04-03T10:18:20;1.60;;;0.98;;
66342;SDS011;53144;51.524;5.080;2023-04-03T10:23:45;0.90;;;0.73;;
66342;SDS011;53144;51.524;5.080;2023-04-03T10:26:32;1.25;;;1.00;;
66342;SDS011;53144;51.524;5.080;2023-04-03T10:34:44;1.10;;;1.00;;
66342;SDS011;53144;51.524;5.080;2023-04-03T10:40:01;0.87;;;0.87;;
66342;SDS011;53144;51.524;5.080;2023-04-03T10:55:51;1.23;;;0.90;;
66342;SDS011;53144;51.524;5.080;2023-04-03T10:58:26;1.58;;;0.80;;
66342;SDS011;53144;51.524;5.080;2023-04-03T11:00:57;2.13;;;1.05;;
66342;SDS011;53144;51.524;5.080;2023-04-03T11:03:33;2.13;;;1.30;;
66342;SDS011;53144;51.524;5.080;2023-04-03T11:06:08;1.80;;;0.80;;
66342;SDS011;53144;51.524;5.080;2023-04-03T11:11:20;2.25;;;1.00;;
66342;SDS011;53144;51.524;5.080;2023-04-03T11:14:04;2.08;;;0.98;;
66342;SDS011;53144;51.524;5.080;2023-04-03T11:16:40;1.13;;;0.93;;
66342;SDS011;53144;51.524;5.080;2023-04-03T11:24:13;2.40;;;0.93;;
66342;SDS011;53144;51.524;5.080;2023-04-03T11:26:55;0.80;;;0.80;;
66342;SDS011;53144;51.524;5.080;2023-04-03T11:29:23;1.55;;;0.88;;
66342;SDS011;53144;51.524;5.080;2023-04-03T11:31:58;0.93;;;0.80;;
66342;SDS011;53144;51.524;5.080;2023-04-03T11:37:27;3.08;;;1.05;;
66342;SDS011;53144;51.524;5.080;2023-04-03T11:43:15;1.52;;;0.90;;
66342;SDS011;53144;51.524;5.080;2023-04-03T11:45:55;1.30;;;1.20;;
66342;SDS011;53144;51.524;5.080;2023-04-03T11:50:59;1.00;;;0.90;;
66342;SDS011;53144;51.524;5.080;2023-04-03T11:53:37;2.00;;;1.05;;
66342;SDS011;53144;51.524;5.080;2023-04-03T11:58:33;2.63;;;0.98;;
66342;SDS011;53144;51.524;5.080;2023-04-03T12:08:26;1.60;;;0.88;;
66342;SDS011;53144;51.524;5.080;2023-04-03T12:22:04;1.88;;;1.05;;
66342;SDS011;53144;51.524;5.080;2023-04-03T12:30:29;2.40;;;1.38;;
66342;SDS011;53144;51.524;5.080;2023-04-03T12:32:46;1.58;;;1.05;;
66342;SDS011;53144;51.524;5.080;2023-04-03T12:40:52;0.88;;;0.80;;
66342;SDS011;53144;51.524;5.080;2023-04-03T12:43:50;2.10;;;1.20;;
66342;SDS011;53144;51.524;5.080;2023-04-03T12:46:38;1.42;;;1.02;;
66342;SDS011;53144;51.524;5.080;2023-04-03T12:51:45;1.15;;;0.98;;
66342;SDS011;53144;51.524;5.080;2023-04-03T12:56:46;1.25;;;0.90;;
66342;SDS011;53144;51.524;5.080;2023-04-03T12:59:21;1.75;;;1.00;;
66342;SDS011;53144;51.524;5.080;2023-04-03T13:04:24;2.10;;;1.08;;
66342;SDS011;53144;51.524;5.080;2023-04-03T13:06:51;4.90;;;1.85;;
66342;SDS011;53144;51.524;5.080;2023-04-03T13:09:27;1.42;;;1.20;;
66342;SDS011;53144;51.524;5.080;2023-04-03T13:11:58;3.03;;;1.40;;
66342;SDS011;53144;51.524;5.080;2023-04-03T13:14:26;1.60;;;1.00;;
66342;SDS011;53144;51.524;5.080;2023-04-03T13:17:03;0.88;;;0.88;;
66342;SDS011;53144;51.524;5.080;2023-04-03T13:19:31;1.58;;;1.30;;
66342;SDS011;53144;51.524;5.080;2023-04-03T13:22:07;2.17;;;1.17;;
66342;SDS011;53144;51.524;5.080;2023-04-03T13:24:47;3.90;;;0.93;;
66342;SDS011;53144;51.524;5.080;2023-04-03T13:27:15;4.63;;;1.30;;
66342;SDS011;53144;51.524;5.080;2023-04-03T13:29:41;1.25;;;1.15;;
66342;SDS011;53144;51.524;5.080;2023-04-03T13:32:13;1.20;;;1.10;;
66342;SDS011;53144;51.524;5.080;2023-04-03T13:34:44;1.60;;;1.20;;
66342;SDS011;53144;51.524;5.080;2023-04-03T13:40:18;2.50;;;1.25;;
66342;SDS011;53144;51.524;5.080;2023-04-03T13:42:43;2.17;;;1.30;;
66342;SDS011;53144;51.524;5.080;2023-04-03T13:45:17;1.95;;;1.23;;
66342;SDS011;53144;51.524;5.080;2023-04-03T13:47:46;2.40;;;1.27;;
66342;SDS011;53144;51.524;5.080;2023-04-03T13:50:18;3.45;;;1.45;;
66342;SDS011;53144;51.524;5.080;2023-04-03T13:55:37;2.67;;;1.30;;
66342;SDS011;53144;51.524;5.080;2023-04-03T13:58:22;1.33;;;1.20;;
66342;SDS011;53144;51.524;5.080;2023-04-03T14:03:24;2.67;;;1.35;;
66342;SDS011;53144;51.524;5.080;2023-04-03T14:06:14;2.97;;;1.40;;
66342;SDS011;53144;51.524;5.080;2023-04-03T14:08:41;2.40;;;1.52;;
66342;SDS011;53144;51.524;5.080;2023-04-03T14:11:16;1.63;;;1.35;;
66342;SDS011;53144;51.524;5.080;2023-04-03T14:13:44;6.68;;;1.42;;
66342;SDS011;53144;51.524;5.080;2023-04-03T14:16:15;1.73;;;1.10;;
66342;SDS011;53144;51.524;5.080;2023-04-03T14:18:44;2.42;;;1.60;;
66342;SDS011;53144;51.524;5.080;2023-04-03T14:21:13;2.97;;;1.55;;
66342;SDS011;53144;51.524;5.080;2023-04-03T14:23:41;1.80;;;1.20;;
66342;SDS011;53144;51.524;5.080;2023-04-03T14:26:11;3.47;;;1.92;;
66342;SDS011;53144;51.524;5.080;2023-04-03T14:28:43;1.50;;;1.30;;
66342;SDS011;53144;51.524;5.080;2023-04-03T14:31:10;2.17;;;1.50;;
66342;SDS011;53144;51.524;5.080;2023-04-03T14:33:37;3.72;;;1.40;;
66342;SDS011;53144;51.524;5.080;2023-04-03T14:38:37;1.90;;;1.30;;
66342;SDS011;53144;51.524;5.080;2023-04-03T14:43:28;2.72;;;1.17;;
66342;SDS011;53144;51.524;5.080;2023-04-03T14:48:21;3.33;;;1.13;;
66342;SDS011;53144;51.524;5.080;2023-04-03T14:50:49;2.75;;;1.65;;
66342;SDS011;53144;51.524;5.080;2023-04-03T14:53:16;2.28;;;1.30;;
66342;SDS011;53144;51.524;5.080;2023-04-03T14:55:46;4.90;;;1.50;;
66342;SDS011;53144;51.524;5.080;2023-04-03T14:58:12;3.50;;;1.42;;
66342;SDS011;53144;51.524;5.080;2023-04-03T15:00:40;3.30;;;1.40;;
66342;SDS011;53144;51.524;5.080;2023-04-03T15:05:31;3.58;;;1.50;;
66342;SDS011;53144;51.524;5.080;2023-04-03T15:10:23;3.20;;;1.80;;
66342;SDS011;53144;51.524;5.080;2023-04-03T15:12:51;3.17;;;1.27;;
66342;SDS011;53144;51.524;5.080;2023-04-03T15:15:17;2.05;;;1.40;;
66342;SDS011;53144;51.524;5.080;2023-04-03T15:17:45;3.70;;;1.38;;
66342;SDS011;53144;51.524;5.080;2023-04-03T15:20:17;4.45;;;1.52;;
66342;SDS011;53144;51.524;5.080;2023-04-03T15:22:44;2.75;;;1.40;;
66342;SDS011;53144;51.524;5.080;2023-04-03T15:27:36;3.38;;;1.40;;
66342;SDS011;53144;51.524;5.080;2023-04-03T15:30:03;5.15;;;1.63;;
66342;SDS011;53144;51.524;5.080;2023-04-03T15:32:33;2.90;;;1.38;;
66342;SDS011;53144;51.524;5.080;2023-04-03T15:34:59;5.60;;;1.48;;
66342;SDS011;53144;51.524;5.080;2023-04-03T15:39:50;7.13;;;1.80;;
66342;SDS011;53144;51.524;5.080;2023-04-03T15:44:41;7.35;;;1.45;;
66342;SDS011;53144;51.524;5.080;2023-04-03T15:49:32;4.05;;;1.45;;
66342;SDS011;53144;51.524;5.080;2023-04-03T15:51:58;5.47;;;1.60;;
66342;SDS011;53144;51.524;5.080;2023-04-03T15:56:50;3.58;;;1.45;;
66342;SDS011;53144;51.524;5.080;2023-04-03T16:01:41;1.38;;;1.20;;
66342;SDS011;53144;51.524;5.080;2023-04-03T16:06:33;3.05;;;1.50;;
66342;SDS011;53144;51.524;5.080;2023-04-03T16:08:59;2.20;;;1.38;;
66342;SDS011;53144;51.524;5.080;2023-04-03T16:11:25;4.72;;;1.67;;
66342;SDS011;53144;51.524;5.080;2023-04-03T16:13:52;5.45;;;1.60;;
66342;SDS011;53144;51.524;5.080;2023-04-03T16:16:18;4.80;;;1.50;;
66342;SDS011;53144;51.524;5.080;2023-04-03T16:21:08;1.92;;;1.40;;
66342;SDS011;53144;51.524;5.080;2023-04-03T16:25:59;2.58;;;1.40;;
66342;SDS011;53144;51.524;5.080;2023-04-03T16:30:50;4.53;;;1.60;;
66342;SDS011;53144;51.524;5.080;2023-04-03T16:35:42;1.70;;;1.48;;
66342;SDS011;53144;51.524;5.080;2023-04-03T16:38:08;2.13;;;1.60;;
66342;SDS011;53144;51.524;5.080;2023-04-03T16:43:00;3.53;;;1.40;;
66342;SDS011;53144;51.524;5.080;2023-04-03T16:45:26;3.13;;;1.58;;
66342;SDS011;53144;51.524;5.080;2023-04-03T16:47:51;6.55;;;1.98;;
66342;SDS011;53144;51.524;5.080;2023-04-03T16:50:17;2.63;;;1.60;;
66342;SDS011;53144;51.524;5.080;2023-04-03T16:52:42;5.25;;;1.90;;
66342;SDS011;53144;51.524;5.080;2023-04-03T16:55:10;2.47;;;1.40;;
66342;SDS011;53144;51.524;5.080;2023-04-03T16:57:35;1.50;;;1.30;;
66342;SDS011;53144;51.524;5.080;2023-04-03T17:02:26;2.20;;;1.20;;
66342;SDS011;53144;51.524;5.080;2023-04-03T17:04:52;2.38;;;1.40;;
66342;SDS011;53144;51.524;5.080;2023-04-03T17:07:19;4.75;;;1.80;;
66342;SDS011;53144;51.524;5.080;2023-04-03T17:09:45;4.88;;;1.63;;
66342;SDS011;53144;51.524;5.080;2023-04-03T17:12:11;5.22;;;1.70;;
66342;SDS011;53144;51.524;5.080;2023-04-03T17:14:36;6.30;;;1.90;;
66342;SDS011;53144;51.524;5.080;2023-04-03T17:17:02;4.05;;;1.50;;
66342;SDS011;53144;51.524;5.080;2023-04-03T17:19:28;2.10;;;1.42;;
66342;SDS011;53144;51.524;5.080;2023-04-03T17:21:54;5.63;;;1.50;;
66342;SDS011;53144;51.524;5.080;2023-04-03T17:24:20;4.93;;;1.73;;
66342;SDS011;53144;51.524;5.080;2023-04-03T17:29:10;2.83;;;1.23;;
66342;SDS011;53144;51.524;5.080;2023-04-03T17:31:36;2.00;;;1.40;;
66342;SDS011;53144;51.524;5.080;2023-04-03T17:34:02;3.50;;;1.50;;
66342;SDS011;53144;51.524;5.080;2023-04-03T17:38:53;2.58;;;1.40;;
66342;SDS011;53144;51.524;5.080;2023-04-03T17:41:19;2.97;;;1.50;;
66342;SDS011;53144;51.524;5.080;2023-04-03T17:43:44;2.63;;;1.55;;
66342;SDS011;53144;51.524;5.080;2023-04-03T17:46:10;4.68;;;1.70;;
66342;SDS011;53144;51.524;5.080;2023-04-03T17:48:36;3.28;;;1.50;;